sensor_id;sensor_type;location;lat;lon;timestamp;temperature;humidity
6307;DHT22;3186;54.062;9.962;2023-06-10T00:01:53;19.10;14.50
6307;DHT22;3186;54.062;9.962;2023-06-10T00:04:22;19.00;15.00
6307;DHT22;3186;54.062;9.962;2023-06-10T00:06:48;18.90;16.50
6307;DHT22;3186;54.062;9.962;2023-06-10T00:09:15;18.90;18.90
6307;DHT22;3186;54.062;9.962;2023-06-10T00:11:41;18.90;18.80
6307;DHT22;3186;54.062;9.962;2023-06-10T00:14:07;18.80;20.10
6307;DHT22;3186;54.062;9.962;2023-06-10T00:16:34;18.80;20.30
6307;DHT22;3186;54.062;9.962;2023-06-10T00:19:00;18.70;22.70
6307;DHT22;3186;54.062;9.962;2023-06-10T00:21:28;18.70;22.90
6307;DHT22;3186;54.062;9.962;2023-06-10T00:23:54;18.70;21.30
6307;DHT22;3186;54.062;9.962;2023-06-10T00:26:22;18.70;21.40
6307;DHT22;3186;54.062;9.962;2023-06-10T00:28:48;18.60;23.00
6307;DHT22;3186;54.062;9.962;2023-06-10T00:31:14;18.60;24.20
6307;DHT22;3186;54.062;9.962;2023-06-10T00:33:40;18.60;23.00
6307;DHT22;3186;54.062;9.962;2023-06-10T00:36:06;18.60;23.00
6307;DHT22;3186;54.062;9.962;2023-06-10T00:38:32;18.40;23.00
6307;DHT22;3186;54.062;9.962;2023-06-10T00:40:58;18.50;22.70
6307;DHT22;3186;54.062;9.962;2023-06-10T00:43:23;18.40;27.50
6307;DHT22;3186;54.062;9.962;2023-06-10T00:45:50;18.40;27.00
6307;DHT22;3186;54.062;9.962;2023-06-10T00:48:16;18.40;25.70
6307;DHT22;3186;54.062;9.962;2023-06-10T00:50:42;18.40;25.10
6307;DHT22;3186;54.062;9.962;2023-06-10T00:53:09;18.30;26.40
6307;DHT22;3186;54.062;9.962;2023-06-10T00:55:35;18.30;26.50
6307;DHT22;3186;54.062;9.962;2023-06-10T00:58:03;18.30;25.10
6307;DHT22;3186;54.062;9.962;2023-06-10T01:00:29;18.30;26.00
6307;DHT22;3186;54.062;9.962;2023-06-10T01:02:55;18.30;25.80
6307;DHT22;3186;54.062;9.962;2023-06-10T01:05:23;18.20;26.50
6307;DHT22;3186;54.062;9.962;2023-06-10T01:08:01;18.20;27.20
6307;DHT22;3186;54.062;9.962;2023-06-10T01:10:40;18.20;27.30
6307;DHT22;3186;54.062;9.962;2023-06-10T01:13:09;18.20;28.80
6307;DHT22;3186;54.062;9.962;2023-06-10T01:15:38;18.10;28.70
6307;DHT22;3186;54.062;9.962;2023-06-10T01:18:07;18.10;28.90
6307;DHT22;3186;54.062;9.962;2023-06-10T01:20:41;18.00;31.00
6307;DHT22;3186;54.062;9.962;2023-06-10T01:23:11;18.00;29.80
6307;DHT22;3186;54.062;9.962;2023-06-10T01:26:01;17.90;30.40
6307;DHT22;3186;54.062;9.962;2023-06-10T01:31:15;17.90;31.40
6307;DHT22;3186;54.062;9.962;2023-06-10T01:33:46;17.90;34.40
6307;DHT22;3186;54.062;9.962;2023-06-10T01:36:15;17.80;32.80
6307;DHT22;3186;54.062;9.962;2023-06-10T01:38:44;17.80;34.30
6307;DHT22;3186;54.062;9.962;2023-06-10T01:41:13;17.80;34.40
6307;DHT22;3186;54.062;9.962;2023-06-10T01:43:39;17.70;35.00
6307;DHT22;3186;54.062;9.962;2023-06-10T01:46:06;17.70;35.50
6307;DHT22;3186;54.062;9.962;2023-06-10T01:48:36;17.70;34.70
6307;DHT22;3186;54.062;9.962;2023-06-10T01:51:02;17.70;35.70
6307;DHT22;3186;54.062;9.962;2023-06-10T01:53:28;17.70;34.90
6307;DHT22;3186;54.062;9.962;2023-06-10T01:55:54;17.70;35.10
6307;DHT22;3186;54.062;9.962;2023-06-10T01:58:20;17.60;37.40
6307;DHT22;3186;54.062;9.962;2023-06-10T02:00:46;17.60;36.10
6307;DHT22;3186;54.062;9.962;2023-06-10T02:03:12;17.50;37.90
6307;DHT22;3186;54.062;9.962;2023-06-10T02:05:38;17.50;36.90
6307;DHT22;3186;54.062;9.962;2023-06-10T02:08:04;17.50;37.10
6307;DHT22;3186;54.062;9.962;2023-06-10T02:10:30;17.50;36.50
6307;DHT22;3186;54.062;9.962;2023-06-10T02:12:56;17.40;37.20
6307;DHT22;3186;54.062;9.962;2023-06-10T02:15:22;17.40;38.20
6307;DHT22;3186;54.062;9.962;2023-06-10T02:17:48;17.30;43.10
6307;DHT22;3186;54.062;9.962;2023-06-10T02:20:14;17.30;40.20
6307;DHT22;3186;54.062;9.962;2023-06-10T02:22:40;17.30;39.80
6307;DHT22;3186;54.062;9.962;2023-06-10T02:25:07;17.30;40.10
6307;DHT22;3186;54.062;9.962;2023-06-10T02:27:33;17.20;40.10
6307;DHT22;3186;54.062;9.962;2023-06-10T02:29:59;17.20;40.90
6307;DHT22;3186;54.062;9.962;2023-06-10T02:32:26;17.20;41.10
6307;DHT22;3186;54.062;9.962;2023-06-10T02:34:52;17.20;41.10
6307;DHT22;3186;54.062;9.962;2023-06-10T02:37:21;17.10;41.20
6307;DHT22;3186;54.062;9.962;2023-06-10T02:39:47;18.00;41.40
6307;DHT22;3186;54.062;9.962;2023-06-10T02:42:13;17.10;42.10
6307;DHT22;3186;54.062;9.962;2023-06-10T02:44:39;17.00;44.90
6307;DHT22;3186;54.062;9.962;2023-06-10T02:47:08;17.00;43.10
6307;DHT22;3186;54.062;9.962;2023-06-10T02:49:36;17.00;43.60
6307;DHT22;3186;54.062;9.962;2023-06-10T02:52:02;17.00;42.60
6307;DHT22;3186;54.062;9.962;2023-06-10T02:54:28;16.90;45.90
6307;DHT22;3186;54.062;9.962;2023-06-10T02:56:56;17.00;47.70
6307;DHT22;3186;54.062;9.962;2023-06-10T02:59:26;16.90;46.30
6307;DHT22;3186;54.062;9.962;2023-06-10T03:01:54;16.90;45.70
6307;DHT22;3186;54.062;9.962;2023-06-10T03:04:21;16.80;45.80
6307;DHT22;3186;54.062;9.962;2023-06-10T03:06:57;16.80;47.40
6307;DHT22;3186;54.062;9.962;2023-06-10T03:09:30;16.80;46.90
6307;DHT22;3186;54.062;9.962;2023-06-10T03:11:58;16.70;47.90
6307;DHT22;3186;54.062;9.962;2023-06-10T03:14:25;16.70;47.70
6307;DHT22;3186;54.062;9.962;2023-06-10T03:16:51;16.70;47.70
6307;DHT22;3186;54.062;9.962;2023-06-10T03:19:19;16.70;48.50
6307;DHT22;3186;54.062;9.962;2023-06-10T03:22:06;16.70;48.80
6307;DHT22;3186;54.062;9.962;2023-06-10T03:24:32;16.70;48.60
6307;DHT22;3186;54.062;9.962;2023-06-10T03:26:58;16.70;47.60
6307;DHT22;3186;54.062;9.962;2023-06-10T03:29:24;16.70;52.60
6307;DHT22;3186;54.062;9.962;2023-06-10T03:31:50;16.60;50.20
6307;DHT22;3186;54.062;9.962;2023-06-10T03:34:16;16.60;48.30
6307;DHT22;3186;54.062;9.962;2023-06-10T03:36:42;16.60;49.50
6307;DHT22;3186;54.062;9.962;2023-06-10T03:39:09;16.60;49.40
6307;DHT22;3186;54.062;9.962;2023-06-10T03:41:36;16.60;51.90
6307;DHT22;3186;54.062;9.962;2023-06-10T03:44:02;16.50;51.50
6307;DHT22;3186;54.062;9.962;2023-06-10T03:46:29;16.50;50.80
6307;DHT22;3186;54.062;9.962;2023-06-10T03:48:55;16.50;52.30
6307;DHT22;3186;54.062;9.962;2023-06-10T03:51:21;16.40;50.90
6307;DHT22;3186;54.062;9.962;2023-06-10T03:53:49;16.40;51.00
6307;DHT22;3186;54.062;9.962;2023-06-10T03:56:14;16.50;51.90
6307;DHT22;3186;54.062;9.962;2023-06-10T03:58:40;16.50;51.90
6307;DHT22;3186;54.062;9.962;2023-06-10T04:01:06;16.40;52.20
6307;DHT22;3186;54.062;9.962;2023-06-10T04:03:34;16.40;52.20
6307;DHT22;3186;54.062;9.962;2023-06-10T04:06:01;16.40;52.80
6307;DHT22;3186;54.062;9.962;2023-06-10T04:08:27;16.40;52.20
6307;DHT22;3186;54.062;9.962;2023-06-10T04:10:53;16.40;53.20
6307;DHT22;3186;54.062;9.962;2023-06-10T04:13:19;16.40;53.90
6307;DHT22;3186;54.062;9.962;2023-06-10T04:15:53;16.40;58.00
6307;DHT22;3186;54.062;9.962;2023-06-10T04:18:20;16.30;57.70
6307;DHT22;3186;54.062;9.962;2023-06-10T04:20:47;16.30;58.20
6307;DHT22;3186;54.062;9.962;2023-06-10T04:23:13;16.30;56.70
6307;DHT22;3186;54.062;9.962;2023-06-10T04:25:42;16.30;58.20
6307;DHT22;3186;54.062;9.962;2023-06-10T04:28:08;16.30;57.40
6307;DHT22;3186;54.062;9.962;2023-06-10T04:30:35;16.30;59.90
6307;DHT22;3186;54.062;9.962;2023-06-10T04:33:01;16.40;61.10
6307;DHT22;3186;54.062;9.962;2023-06-10T04:35:28;16.30;61.00
6307;DHT22;3186;54.062;9.962;2023-06-10T04:37:54;16.30;61.20
6307;DHT22;3186;54.062;9.962;2023-06-10T04:40:20;16.30;60.00
6307;DHT22;3186;54.062;9.962;2023-06-10T04:42:47;16.30;60.00
6307;DHT22;3186;54.062;9.962;2023-06-10T04:45:13;16.30;62.90
6307;DHT22;3186;54.062;9.962;2023-06-10T04:47:39;16.20;64.40
6307;DHT22;3186;54.062;9.962;2023-06-10T04:50:07;16.30;65.50
6307;DHT22;3186;54.062;9.962;2023-06-10T04:52:33;16.30;72.30
6307;DHT22;3186;54.062;9.962;2023-06-10T04:54:59;16.30;70.30
6307;DHT22;3186;54.062;9.962;2023-06-10T04:57:25;16.20;73.70
6307;DHT22;3186;54.062;9.962;2023-06-10T04:59:53;16.20;78.40
6307;DHT22;3186;54.062;9.962;2023-06-10T05:02:18;16.20;96.70
6307;DHT22;3186;54.062;9.962;2023-06-10T05:04:44;16.20;75.70
6307;DHT22;3186;54.062;9.962;2023-06-10T05:07:10;16.30;74.20
6307;DHT22;3186;54.062;9.962;2023-06-10T05:09:36;16.20;87.20
6307;DHT22;3186;54.062;9.962;2023-06-10T05:12:03;16.20;80.90
6307;DHT22;3186;54.062;9.962;2023-06-10T05:14:29;16.30;84.40
6307;DHT22;3186;54.062;9.962;2023-06-10T05:16:55;16.30;83.90
6307;DHT22;3186;54.062;9.962;2023-06-10T05:19:21;16.40;86.00
6307;DHT22;3186;54.062;9.962;2023-06-10T05:21:47;16.50;79.80
6307;DHT22;3186;54.062;9.962;2023-06-10T05:24:13;16.40;96.20
6307;DHT22;3186;54.062;9.962;2023-06-10T05:26:39;16.40;96.10
6307;DHT22;3186;54.062;9.962;2023-06-10T05:29:08;16.50;85.40
6307;DHT22;3186;54.062;9.962;2023-06-10T05:31:36;16.60;85.70
6307;DHT22;3186;54.062;9.962;2023-06-10T05:34:02;16.50;92.20
6307;DHT22;3186;54.062;9.962;2023-06-10T05:36:28;16.50;91.50
6307;DHT22;3186;54.062;9.962;2023-06-10T05:38:54;16.60;91.70
6307;DHT22;3186;54.062;9.962;2023-06-10T05:41:20;16.70;99.90
6307;DHT22;3186;54.062;9.962;2023-06-10T05:43:47;16.80;93.60
6307;DHT22;3186;54.062;9.962;2023-06-10T05:46:13;16.90;99.60
6307;DHT22;3186;54.062;9.962;2023-06-10T05:48:40;17.00;96.60
6307;DHT22;3186;54.062;9.962;2023-06-10T05:51:06;17.00;93.60
6307;DHT22;3186;54.062;9.962;2023-06-10T05:53:32;17.10;93.20
6307;DHT22;3186;54.062;9.962;2023-06-10T05:55:58;17.20;91.30
6307;DHT22;3186;54.062;9.962;2023-06-10T05:58:24;17.30;86.10
6307;DHT22;3186;54.062;9.962;2023-06-10T06:00:50;17.40;91.90
6307;DHT22;3186;54.062;9.962;2023-06-10T06:03:17;17.50;91.40
6307;DHT22;3186;54.062;9.962;2023-06-10T06:05:43;16.30;92.90
6307;DHT22;3186;54.062;9.962;2023-06-10T06:08:09;17.70;89.80
6307;DHT22;3186;54.062;9.962;2023-06-10T06:10:36;17.80;96.30
6307;DHT22;3186;54.062;9.962;2023-06-10T06:13:02;18.00;79.00
6307;DHT22;3186;54.062;9.962;2023-06-10T06:15:28;18.10;81.00
6307;DHT22;3186;54.062;9.962;2023-06-10T06:17:54;18.20;82.20
6307;DHT22;3186;54.062;9.962;2023-06-10T06:20:22;18.20;85.40
6307;DHT22;3186;54.062;9.962;2023-06-10T06:22:48;18.30;73.00
6307;DHT22;3186;54.062;9.962;2023-06-10T06:25:14;18.50;81.80
6307;DHT22;3186;54.062;9.962;2023-06-10T06:27:40;18.60;85.80
6307;DHT22;3186;54.062;9.962;2023-06-10T06:30:07;18.60;76.90
6307;DHT22;3186;54.062;9.962;2023-06-10T06:32:33;18.50;74.80
6307;DHT22;3186;54.062;9.962;2023-06-10T06:34:59;18.50;76.60
6307;DHT22;3186;54.062;9.962;2023-06-10T06:37:25;18.60;79.30
6307;DHT22;3186;54.062;9.962;2023-06-10T06:40:00;18.50;79.60
6307;DHT22;3186;54.062;9.962;2023-06-10T06:42:26;18.70;91.30
6307;DHT22;3186;54.062;9.962;2023-06-10T06:45:00;18.90;67.10
6307;DHT22;3186;54.062;9.962;2023-06-10T06:47:26;18.80;70.20
6307;DHT22;3186;54.062;9.962;2023-06-10T06:49:52;19.00;65.50
6307;DHT22;3186;54.062;9.962;2023-06-10T06:52:18;19.00;68.40
6307;DHT22;3186;54.062;9.962;2023-06-10T06:54:44;19.10;66.60
6307;DHT22;3186;54.062;9.962;2023-06-10T06:57:10;19.10;84.20
6307;DHT22;3186;54.062;9.962;2023-06-10T06:59:36;19.10;63.90
6307;DHT22;3186;54.062;9.962;2023-06-10T07:02:03;19.10;65.10
6307;DHT22;3186;54.062;9.962;2023-06-10T07:04:29;19.30;62.80
6307;DHT22;3186;54.062;9.962;2023-06-10T07:06:55;19.30;60.40
6307;DHT22;3186;54.062;9.962;2023-06-10T07:09:21;19.40;65.00
6307;DHT22;3186;54.062;9.962;2023-06-10T07:11:47;19.50;76.90
6307;DHT22;3186;54.062;9.962;2023-06-10T07:14:13;19.50;77.90
6307;DHT22;3186;54.062;9.962;2023-06-10T07:16:39;19.40;68.90
6307;DHT22;3186;54.062;9.962;2023-06-10T07:19:04;19.60;67.40
6307;DHT22;3186;54.062;9.962;2023-06-10T07:21:30;19.60;63.90
6307;DHT22;3186;54.062;9.962;2023-06-10T07:23:57;19.70;58.70
6307;DHT22;3186;54.062;9.962;2023-06-10T07:26:23;19.90;71.00
6307;DHT22;3186;54.062;9.962;2023-06-10T07:28:49;20.00;55.40
6307;DHT22;3186;54.062;9.962;2023-06-10T07:31:15;20.20;53.90
6307;DHT22;3186;54.062;9.962;2023-06-10T07:33:41;20.50;66.30
6307;DHT22;3186;54.062;9.962;2023-06-10T07:36:07;20.80;50.90
6307;DHT22;3186;54.062;9.962;2023-06-10T07:38:33;20.70;48.10
6307;DHT22;3186;54.062;9.962;2023-06-10T07:40:59;20.40;51.30
6307;DHT22;3186;54.062;9.962;2023-06-10T07:43:25;20.60;48.90
6307;DHT22;3186;54.062;9.962;2023-06-10T07:45:51;20.60;53.50
6307;DHT22;3186;54.062;9.962;2023-06-10T07:48:17;20.80;51.40
6307;DHT22;3186;54.062;9.962;2023-06-10T07:50:43;21.10;51.80
6307;DHT22;3186;54.062;9.962;2023-06-10T07:53:09;21.40;50.50
6307;DHT22;3186;54.062;9.962;2023-06-10T07:55:35;21.50;49.50
6307;DHT22;3186;54.062;9.962;2023-06-10T07:58:00;21.70;41.90
6307;DHT22;3186;54.062;9.962;2023-06-10T08:00:26;21.60;46.70
6307;DHT22;3186;54.062;9.962;2023-06-10T08:02:52;22.00;46.70
6307;DHT22;3186;54.062;9.962;2023-06-10T08:05:18;21.90;38.50
6307;DHT22;3186;54.062;9.962;2023-06-10T08:07:44;21.90;40.70
6307;DHT22;3186;54.062;9.962;2023-06-10T08:10:10;21.90;41.30
6307;DHT22;3186;54.062;9.962;2023-06-10T08:12:37;21.90;47.20
6307;DHT22;3186;54.062;9.962;2023-06-10T08:15:03;22.10;44.50
6307;DHT22;3186;54.062;9.962;2023-06-10T08:17:30;22.30;33.50
6307;DHT22;3186;54.062;9.962;2023-06-10T08:19:56;22.10;38.60
6307;DHT22;3186;54.062;9.962;2023-06-10T08:22:22;22.40;38.90
6307;DHT22;3186;54.062;9.962;2023-06-10T08:24:48;22.80;43.30
6307;DHT22;3186;54.062;9.962;2023-06-10T08:27:14;23.30;35.90
6307;DHT22;3186;54.062;9.962;2023-06-10T08:29:40;23.40;34.90
6307;DHT22;3186;54.062;9.962;2023-06-10T08:32:06;23.40;29.70
6307;DHT22;3186;54.062;9.962;2023-06-10T08:34:34;23.00;27.60
6307;DHT22;3186;54.062;9.962;2023-06-10T08:37:01;22.80;26.90
6307;DHT22;3186;54.062;9.962;2023-06-10T08:39:27;23.20;31.00
6307;DHT22;3186;54.062;9.962;2023-06-10T08:44:42;23.60;28.70
6307;DHT22;3186;54.062;9.962;2023-06-10T08:47:16;23.50;23.20
6307;DHT22;3186;54.062;9.962;2023-06-10T08:49:46;23.50;26.50
6307;DHT22;3186;54.062;9.962;2023-06-10T08:52:17;24.00;28.60
6307;DHT22;3186;54.062;9.962;2023-06-10T08:54:57;24.60;28.70
6307;DHT22;3186;54.062;9.962;2023-06-10T08:57:25;24.70;24.60
6307;DHT22;3186;54.062;9.962;2023-06-10T08:59:53;24.70;23.90
6307;DHT22;3186;54.062;9.962;2023-06-10T09:02:19;25.00;24.00
6307;DHT22;3186;54.062;9.962;2023-06-10T09:04:47;24.90;18.80
6307;DHT22;3186;54.062;9.962;2023-06-10T09:07:15;24.80;23.80
6307;DHT22;3186;54.062;9.962;2023-06-10T09:09:42;25.20;22.70
6307;DHT22;3186;54.062;9.962;2023-06-10T09:12:09;25.50;21.90
6307;DHT22;3186;54.062;9.962;2023-06-10T09:14:35;25.40;18.30
6307;DHT22;3186;54.062;9.962;2023-06-10T09:17:02;25.90;23.40
6307;DHT22;3186;54.062;9.962;2023-06-10T09:19:28;25.50;13.70
6307;DHT22;3186;54.062;9.962;2023-06-10T09:21:54;25.60;20.50
6307;DHT22;3186;54.062;9.962;2023-06-10T09:24:24;26.00;16.70
6307;DHT22;3186;54.062;9.962;2023-06-10T09:26:50;26.00;16.50
6307;DHT22;3186;54.062;9.962;2023-06-10T09:29:17;26.30;16.70
6307;DHT22;3186;54.062;9.962;2023-06-10T09:31:43;26.50;17.90
6307;DHT22;3186;54.062;9.962;2023-06-10T09:34:14;26.40;11.80
6307;DHT22;3186;54.062;9.962;2023-06-10T09:36:41;26.50;14.20
6307;DHT22;3186;54.062;9.962;2023-06-10T09:39:17;26.70;11.90
6307;DHT22;3186;54.062;9.962;2023-06-10T09:41:45;26.80;11.70
6307;DHT22;3186;54.062;9.962;2023-06-10T09:44:14;27.00;11.90
6307;DHT22;3186;54.062;9.962;2023-06-10T09:46:41;27.00;8.90
6307;DHT22;3186;54.062;9.962;2023-06-10T09:49:07;26.50;10.50
6307;DHT22;3186;54.062;9.962;2023-06-10T09:51:33;26.70;11.50
6307;DHT22;3186;54.062;9.962;2023-06-10T09:54:02;27.00;13.30
6307;DHT22;3186;54.062;9.962;2023-06-10T09:56:35;27.10;8.80
6307;DHT22;3186;54.062;9.962;2023-06-10T09:59:03;27.20;9.50
6307;DHT22;3186;54.062;9.962;2023-06-10T10:01:30;27.80;12.50
6307;DHT22;3186;54.062;9.962;2023-06-10T10:03:56;27.50;6.50
6307;DHT22;3186;54.062;9.962;2023-06-10T10:06:22;27.40;9.00
6307;DHT22;3186;54.062;9.962;2023-06-10T10:08:50;27.70;8.30
6307;DHT22;3186;54.062;9.962;2023-06-10T10:11:20;27.80;7.80
6307;DHT22;3186;54.062;9.962;2023-06-10T10:13:49;27.60;4.50
6307;DHT22;3186;54.062;9.962;2023-06-10T10:16:17;27.90;9.90
6307;DHT22;3186;54.062;9.962;2023-06-10T10:18:52;28.40;5.90
6307;DHT22;3186;54.062;9.962;2023-06-10T10:21:22;28.50;5.90
6307;DHT22;3186;54.062;9.962;2023-06-10T10:23:53;28.40;5.50
6307;DHT22;3186;54.062;9.962;2023-06-10T10:26:25;28.50;6.70
6307;DHT22;3186;54.062;9.962;2023-06-10T10:31:42;28.80;2.10
6307;DHT22;3186;54.062;9.962;2023-06-10T10:34:15;29.00;2.70
6307;DHT22;3186;54.062;9.962;2023-06-10T10:36:42;29.00;4.30
6307;DHT22;3186;54.062;9.962;2023-06-10T10:39:08;28.70;1.70
6307;DHT22;3186;54.062;9.962;2023-06-10T10:41:36;29.20;6.80
6307;DHT22;3186;54.062;9.962;2023-06-10T10:44:04;29.00;1.60
6307;DHT22;3186;54.062;9.962;2023-06-10T10:46:48;29.40;3.00
6307;DHT22;3186;54.062;9.962;2023-06-10T10:49:15;29.10;1.00
6307;DHT22;3186;54.062;9.962;2023-06-10T10:51:55;29.30;2.80
6307;DHT22;3186;54.062;9.962;2023-06-10T10:57:19;28.90;1.00
6307;DHT22;3186;54.062;9.962;2023-06-10T11:02:47;29.60;3.60
6307;DHT22;3186;54.062;9.962;2023-06-10T11:05:15;30.00;3.50
6307;DHT22;3186;54.062;9.962;2023-06-10T11:07:52;29.90;1.00
6307;DHT22;3186;54.062;9.962;2023-06-10T11:10:32;30.10;3.10
6307;DHT22;3186;54.062;9.962;2023-06-10T11:12:58;30.20;1.90
6307;DHT22;3186;54.062;9.962;2023-06-10T11:15:26;30.00;1.00
6307;DHT22;3186;54.062;9.962;2023-06-10T11:18:22;30.10;3.00
6307;DHT22;3186;54.062;9.962;2023-06-10T11:31:30;30.60;1.00
6307;DHT22;3186;54.062;9.962;2023-06-10T11:33:58;30.40;1.00
6307;DHT22;3186;54.062;9.962;2023-06-10T11:36:25;29.90;1.00
6307;DHT22;3186;54.062;9.962;2023-06-10T11:38:58;30.20;1.00
6307;DHT22;3186;54.062;9.962;2023-06-10T11:41:25;30.20;1.00
6307;DHT22;3186;54.062;9.962;2023-06-10T11:43:53;30.10;1.00
6307;DHT22;3186;54.062;9.962;2023-06-10T11:46:19;30.30;1.00
6307;DHT22;3186;54.062;9.962;2023-06-10T11:48:52;30.40;1.00
6307;DHT22;3186;54.062;9.962;2023-06-10T11:51:19;30.70;1.00
6307;DHT22;3186;54.062;9.962;2023-06-10T11:53:48;31.00;1.00
6307;DHT22;3186;54.062;9.962;2023-06-10T11:56:23;30.80;1.00
6307;DHT22;3186;54.062;9.962;2023-06-10T11:59:00;30.80;1.00
6307;DHT22;3186;54.062;9.962;2023-06-10T12:01:30;30.50;1.00
6307;DHT22;3186;54.062;9.962;2023-06-10T12:04:08;30.20;1.00
6307;DHT22;3186;54.062;9.962;2023-06-10T12:06:50;30.30;1.00
6307;DHT22;3186;54.062;9.962;2023-06-10T12:09:21;30.20;1.00
6307;DHT22;3186;54.062;9.962;2023-06-10T12:15:04;31.20;1.00
6307;DHT22;3186;54.062;9.962;2023-06-10T12:20:25;31.00;1.00
6307;DHT22;3186;54.062;9.962;2023-06-10T12:22:51;30.80;1.00
6307;DHT22;3186;54.062;9.962;2023-06-10T12:25:17;30.80;1.00
6307;DHT22;3186;54.062;9.962;2023-06-10T12:27:51;30.90;1.00
6307;DHT22;3186;54.062;9.962;2023-06-10T12:30:19;31.20;1.00
6307;DHT22;3186;54.062;9.962;2023-06-10T12:32:46;31.40;1.00
6307;DHT22;3186;54.062;9.962;2023-06-10T12:35:16;30.60;1.00
6307;DHT22;3186;54.062;9.962;2023-06-10T12:38:03;30.80;1.00
6307;DHT22;3186;54.062;9.962;2023-06-10T12:40:32;31.10;1.00
6307;DHT22;3186;54.062;9.962;2023-06-10T12:42:59;31.50;1.00
6307;DHT22;3186;54.062;9.962;2023-06-10T12:50:44;31.10;1.00
6307;DHT22;3186;54.062;9.962;2023-06-10T12:53:11;30.90;1.00
6307;DHT22;3186;54.062;9.962;2023-06-10T12:55:38;31.10;1.00
6307;DHT22;3186;54.062;9.962;2023-06-10T12:58:04;31.10;1.00
6307;DHT22;3186;54.062;9.962;2023-06-10T13:00:30;31.30;1.00
6307;DHT22;3186;54.062;9.962;2023-06-10T13:02:56;31.40;1.00
6307;DHT22;3186;54.062;9.962;2023-06-10T13:05:22;31.20;1.00
6307;DHT22;3186;54.062;9.962;2023-06-10T13:07:48;31.30;1.00
6307;DHT22;3186;54.062;9.962;2023-06-10T13:10:15;31.10;1.00
6307;DHT22;3186;54.062;9.962;2023-06-10T13:12:45;31.30;1.00
6307;DHT22;3186;54.062;9.962;2023-06-10T13:15:12;31.50;1.00
6307;DHT22;3186;54.062;9.962;2023-06-10T13:17:38;31.40;1.00
6307;DHT22;3186;54.062;9.962;2023-06-10T13:20:05;31.80;1.00
6307;DHT22;3186;54.062;9.962;2023-06-10T13:22:32;31.90;1.00
6307;DHT22;3186;54.062;9.962;2023-06-10T13:24:59;32.00;1.00
6307;DHT22;3186;54.062;9.962;2023-06-10T13:27:25;31.80;1.00
6307;DHT22;3186;54.062;9.962;2023-06-10T13:29:51;31.90;1.00
6307;DHT22;3186;54.062;9.962;2023-06-10T13:32:16;31.90;1.00
6307;DHT22;3186;54.062;9.962;2023-06-10T13:34:42;32.00;1.00
6307;DHT22;3186;54.062;9.962;2023-06-10T13:37:08;31.90;1.00
6307;DHT22;3186;54.062;9.962;2023-06-10T13:39:34;31.90;1.00
6307;DHT22;3186;54.062;9.962;2023-06-10T13:41:59;32.30;1.00
6307;DHT22;3186;54.062;9.962;2023-06-10T13:44:25;32.00;1.00
6307;DHT22;3186;54.062;9.962;2023-06-10T13:46:51;31.90;1.00
6307;DHT22;3186;54.062;9.962;2023-06-10T13:49:17;31.70;1.00
6307;DHT22;3186;54.062;9.962;2023-06-10T13:51:43;31.80;1.00
6307;DHT22;3186;54.062;9.962;2023-06-10T13:54:10;31.80;1.00
6307;DHT22;3186;54.062;9.962;2023-06-10T13:56:43;31.60;1.00
6307;DHT22;3186;54.062;9.962;2023-06-10T13:59:09;31.90;1.00
6307;DHT22;3186;54.062;9.962;2023-06-10T14:01:34;31.90;1.00
6307;DHT22;3186;54.062;9.962;2023-06-10T14:04:00;31.60;1.00
6307;DHT22;3186;54.062;9.962;2023-06-10T14:06:26;31.50;1.00
6307;DHT22;3186;54.062;9.962;2023-06-10T14:08:52;31.60;1.00
6307;DHT22;3186;54.062;9.962;2023-06-10T14:11:20;31.70;1.00
6307;DHT22;3186;54.062;9.962;2023-06-10T14:13:46;31.80;1.00
6307;DHT22;3186;54.062;9.962;2023-06-10T14:16:12;31.70;1.00
6307;DHT22;3186;54.062;9.962;2023-06-10T14:18:38;31.50;1.00
6307;DHT22;3186;54.062;9.962;2023-06-10T14:21:04;31.70;1.00
6307;DHT22;3186;54.062;9.962;2023-06-10T14:23:30;31.60;1.00
6307;DHT22;3186;54.062;9.962;2023-06-10T14:25:56;31.90;1.00
6307;DHT22;3186;54.062;9.962;2023-06-10T14:28:21;31.60;1.00
6307;DHT22;3186;54.062;9.962;2023-06-10T14:30:49;31.40;1.00
6307;DHT22;3186;54.062;9.962;2023-06-10T14:33:15;31.20;1.00
6307;DHT22;3186;54.062;9.962;2023-06-10T14:35:41;31.40;1.00
6307;DHT22;3186;54.062;9.962;2023-06-10T14:38:08;31.50;1.00
6307;DHT22;3186;54.062;9.962;2023-06-10T14:40:34;31.50;1.00
6307;DHT22;3186;54.062;9.962;2023-06-10T14:43:00;31.60;1.00
6307;DHT22;3186;54.062;9.962;2023-06-10T14:45:27;31.70;1.00
6307;DHT22;3186;54.062;9.962;2023-06-10T14:47:53;31.90;1.00
6307;DHT22;3186;54.062;9.962;2023-06-10T14:50:18;31.80;1.00
6307;DHT22;3186;54.062;9.962;2023-06-10T14:52:44;32.00;1.00
6307;DHT22;3186;54.062;9.962;2023-06-10T14:55:10;31.90;1.00
6307;DHT22;3186;54.062;9.962;2023-06-10T14:57:36;32.00;1.00
6307;DHT22;3186;54.062;9.962;2023-06-10T15:00:01;31.70;1.00
6307;DHT22;3186;54.062;9.962;2023-06-10T15:02:27;31.90;1.00
6307;DHT22;3186;54.062;9.962;2023-06-10T15:04:53;31.70;1.00
6307;DHT22;3186;54.062;9.962;2023-06-10T15:07:19;31.70;1.00
6307;DHT22;3186;54.062;9.962;2023-06-10T15:09:44;32.10;1.00
6307;DHT22;3186;54.062;9.962;2023-06-10T15:12:10;32.10;1.00
6307;DHT22;3186;54.062;9.962;2023-06-10T15:14:36;32.10;1.00
6307;DHT22;3186;54.062;9.962;2023-06-10T15:17:02;32.10;1.00
6307;DHT22;3186;54.062;9.962;2023-06-10T15:19:28;32.20;1.00
6307;DHT22;3186;54.062;9.962;2023-06-10T15:21:54;32.10;1.00
6307;DHT22;3186;54.062;9.962;2023-06-10T15:24:20;32.20;1.00
6307;DHT22;3186;54.062;9.962;2023-06-10T15:26:46;32.20;1.00
6307;DHT22;3186;54.062;9.962;2023-06-10T15:29:12;32.20;1.00
6307;DHT22;3186;54.062;9.962;2023-06-10T15:31:38;31.90;1.00
6307;DHT22;3186;54.062;9.962;2023-06-10T15:34:04;32.00;1.00
6307;DHT22;3186;54.062;9.962;2023-06-10T15:36:32;32.00;1.00
6307;DHT22;3186;54.062;9.962;2023-06-10T15:39:01;32.10;1.00
6307;DHT22;3186;54.062;9.962;2023-06-10T15:41:28;32.20;1.00
6307;DHT22;3186;54.062;9.962;2023-06-10T15:43:55;32.10;1.00
6307;DHT22;3186;54.062;9.962;2023-06-10T15:46:20;31.90;1.00
6307;DHT22;3186;54.062;9.962;2023-06-10T15:48:46;31.90;1.00
6307;DHT22;3186;54.062;9.962;2023-06-10T15:51:12;32.00;1.00
6307;DHT22;3186;54.062;9.962;2023-06-10T15:53:38;31.90;1.00
6307;DHT22;3186;54.062;9.962;2023-06-10T15:56:04;31.90;1.00
6307;DHT22;3186;54.062;9.962;2023-06-10T15:58:30;31.70;1.00
6307;DHT22;3186;54.062;9.962;2023-06-10T16:00:56;32.10;1.00
6307;DHT22;3186;54.062;9.962;2023-06-10T16:03:22;31.80;1.00
6307;DHT22;3186;54.062;9.962;2023-06-10T16:05:47;31.90;1.00
6307;DHT22;3186;54.062;9.962;2023-06-10T16:08:13;32.00;1.00
6307;DHT22;3186;54.062;9.962;2023-06-10T16:10:39;31.90;1.00
6307;DHT22;3186;54.062;9.962;2023-06-10T16:13:05;31.90;1.00
6307;DHT22;3186;54.062;9.962;2023-06-10T16:15:31;32.10;1.00
6307;DHT22;3186;54.062;9.962;2023-06-10T16:17:57;32.10;1.00
6307;DHT22;3186;54.062;9.962;2023-06-10T16:20:23;32.00;1.00
6307;DHT22;3186;54.062;9.962;2023-06-10T16:22:49;31.80;1.00
6307;DHT22;3186;54.062;9.962;2023-06-10T16:25:15;31.80;1.00
6307;DHT22;3186;54.062;9.962;2023-06-10T16:27:41;31.70;1.00
6307;DHT22;3186;54.062;9.962;2023-06-10T16:30:07;32.00;1.00
6307;DHT22;3186;54.062;9.962;2023-06-10T16:32:33;31.90;1.00
6307;DHT22;3186;54.062;9.962;2023-06-10T16:34:59;31.90;1.00
6307;DHT22;3186;54.062;9.962;2023-06-10T16:37:25;31.50;1.00
6307;DHT22;3186;54.062;9.962;2023-06-10T16:39:51;31.70;1.00
6307;DHT22;3186;54.062;9.962;2023-06-10T16:42:17;31.80;1.00
6307;DHT22;3186;54.062;9.962;2023-06-10T16:44:43;31.70;1.00